sensor_id;sensor_type;location;lat;lon;timestamp;P1;durP1;ratioP1;P2;durP2;ratioP2
20462;SDS011;10390;53.566;9.980;2023-04-24T00:02:04;7.55;;;6.85;;
20462;SDS011;10390;53.566;9.980;2023-04-24T00:04:31;7.90;;;6.32;;
20462;SDS011;10390;53.566;9.980;2023-04-24T00:06:58;7.75;;;6.95;;
20462;SDS011;10390;53.566;9.980;2023-04-24T00:09:25;7.75;;;6.97;;
20462;SDS011;10390;53.566;9.980;2023-04-24T00:11:51;6.93;;;6.32;;
20462;SDS011;10390;53.566;9.980;2023-04-24T00:14:18;7.28;;;6.57;;
20462;SDS011;10390;53.566;9.980;2023-04-24T00:16:44;6.95;;;6.25;;
20462;SDS011;10390;53.566;9.980;2023-04-24T00:19:09;7.28;;;6.60;;
20462;SDS011;10390;53.566;9.980;2023-04-24T00:21:36;7.30;;;6.60;;
20462;SDS011;10390;53.566;9.980;2023-04-24T00:24:02;7.28;;;6.55;;
20462;SDS011;10390;53.566;9.980;2023-04-24T00:26:28;6.85;;;6.15;;
20462;SDS011;10390;53.566;9.980;2023-04-24T00:28:54;7.07;;;6.47;;
20462;SDS011;10390;53.566;9.980;2023-04-24T00:31:19;7.22;;;6.53;;
20462;SDS011;10390;53.566;9.980;2023-04-24T00:33:45;8.02;;;6.85;;
20462;SDS011;10390;53.566;9.980;2023-04-24T00:36:11;7.00;;;6.38;;
20462;SDS011;10390;53.566;9.980;2023-04-24T00:38:37;6.90;;;6.30;;
20462;SDS011;10390;53.566;9.980;2023-04-24T00:41:02;6.80;;;6.20;;
20462;SDS011;10390;53.566;9.980;2023-04-24T00:43:28;6.38;;;5.78;;
20462;SDS011;10390;53.566;9.980;2023-04-24T00:45:54;6.85;;;6.25;;
20462;SDS011;10390;53.566;9.980;2023-04-24T00:48:20;6.65;;;6.00;;
20462;SDS011;10390;53.566;9.980;2023-04-24T00:50:46;6.20;;;5.60;;
20462;SDS011;10390;53.566;9.980;2023-04-24T00:53:11;6.43;;;5.82;;
20462;SDS011;10390;53.566;9.980;2023-04-24T00:55:37;6.50;;;5.90;;
20462;SDS011;10390;53.566;9.980;2023-04-24T00:58:03;6.47;;;5.90;;
20462;SDS011;10390;53.566;9.980;2023-04-24T01:00:29;6.20;;;5.60;;
20462;SDS011;10390;53.566;9.980;2023-04-24T01:02:55;6.32;;;5.75;;
20462;SDS011;10390;53.566;9.980;2023-04-24T01:05:24;6.50;;;5.90;;
20462;SDS011;10390;53.566;9.980;2023-04-24T01:07:50;6.18;;;5.57;;
20462;SDS011;10390;53.566;9.980;2023-04-24T01:10:16;6.40;;;5.80;;
20462;SDS011;10390;53.566;9.980;2023-04-24T01:12:42;6.43;;;5.82;;
20462;SDS011;10390;53.566;9.980;2023-04-24T01:15:08;6.28;;;5.68;;
20462;SDS011;10390;53.566;9.980;2023-04-24T01:17:35;6.80;;;6.05;;
20462;SDS011;10390;53.566;9.980;2023-04-24T01:20:01;6.70;;;6.10;;
20462;SDS011;10390;53.566;9.980;2023-04-24T01:22:30;6.20;;;5.60;;
20462;SDS011;10390;53.566;9.980;2023-04-24T01:24:57;6.47;;;5.88;;
20462;SDS011;10390;53.566;9.980;2023-04-24T01:27:22;6.60;;;5.90;;
20462;SDS011;10390;53.566;9.980;2023-04-24T01:29:48;6.35;;;5.75;;
20462;SDS011;10390;53.566;9.980;2023-04-24T01:32:16;6.22;;;5.63;;
20462;SDS011;10390;53.566;9.980;2023-04-24T01:34:42;6.60;;;6.00;;
20462;SDS011;10390;53.566;9.980;2023-04-24T01:37:08;6.20;;;5.70;;
20462;SDS011;10390;53.566;9.980;2023-04-24T01:39:34;6.40;;;5.80;;
20462;SDS011;10390;53.566;9.980;2023-04-24T01:42:00;6.32;;;5.82;;
20462;SDS011;10390;53.566;9.980;2023-04-24T01:44:27;6.13;;;5.63;;
20462;SDS011;10390;53.566;9.980;2023-04-24T01:46:53;5.97;;;5.38;;
20462;SDS011;10390;53.566;9.980;2023-04-24T01:49:20;5.85;;;5.35;;
20462;SDS011;10390;53.566;9.980;2023-04-24T01:51:46;6.18;;;5.55;;
20462;SDS011;10390;53.566;9.980;2023-04-24T01:54:12;6.38;;;5.75;;
20462;SDS011;10390;53.566;9.980;2023-04-24T01:56:39;6.20;;;5.60;;
20462;SDS011;10390;53.566;9.980;2023-04-24T01:59:07;5.60;;;5.07;;
20462;SDS011;10390;53.566;9.980;2023-04-24T02:01:35;6.05;;;5.43;;
20462;SDS011;10390;53.566;9.980;2023-04-24T02:04:01;5.68;;;5.10;;
20462;SDS011;10390;53.566;9.980;2023-04-24T02:06:27;5.70;;;5.20;;
20462;SDS011;10390;53.566;9.980;2023-04-24T02:08:53;6.22;;;5.63;;
20462;SDS011;10390;53.566;9.980;2023-04-24T02:11:18;6.20;;;5.60;;
20462;SDS011;10390;53.566;9.980;2023-04-24T02:13:44;6.25;;;5.35;;
20462;SDS011;10390;53.566;9.980;2023-04-24T02:16:09;5.60;;;5.10;;
20462;SDS011;10390;53.566;9.980;2023-04-24T02:18:35;6.65;;;5.50;;
20462;SDS011;10390;53.566;9.980;2023-04-24T02:21:01;5.50;;;5.00;;
20462;SDS011;10390;53.566;9.980;2023-04-24T02:23:27;5.55;;;5.05;;
20462;SDS011;10390;53.566;9.980;2023-04-24T02:25:52;5.72;;;5.22;;
20462;SDS011;10390;53.566;9.980;2023-04-24T02:28:18;5.88;;;5.28;;
20462;SDS011;10390;53.566;9.980;2023-04-24T02:30:44;6.05;;;5.45;;
20462;SDS011;10390;53.566;9.980;2023-04-24T02:33:10;5.22;;;4.72;;
20462;SDS011;10390;53.566;9.980;2023-04-24T02:35:36;5.45;;;4.95;;
20462;SDS011;10390;53.566;9.980;2023-04-24T02:38:02;5.45;;;4.95;;
20462;SDS011;10390;53.566;9.980;2023-04-24T02:40:28;5.72;;;5.22;;
20462;SDS011;10390;53.566;9.980;2023-04-24T02:42:54;5.75;;;5.25;;
20462;SDS011;10390;53.566;9.980;2023-04-24T02:45:19;5.25;;;4.75;;
20462;SDS011;10390;53.566;9.980;2023-04-24T02:47:45;5.43;;;4.90;;
20462;SDS011;10390;53.566;9.980;2023-04-24T02:50:10;5.30;;;4.80;;
20462;SDS011;10390;53.566;9.980;2023-04-24T02:52:36;5.57;;;5.07;;
20462;SDS011;10390;53.566;9.980;2023-04-24T02:55:02;5.40;;;4.90;;
20462;SDS011;10390;53.566;9.980;2023-04-24T02:57:27;5.30;;;4.80;;
20462;SDS011;10390;53.566;9.980;2023-04-24T02:59:53;6.15;;;5.55;;
20462;SDS011;10390;53.566;9.980;2023-04-24T03:02:19;5.50;;;5.00;;
20462;SDS011;10390;53.566;9.980;2023-04-24T03:04:45;5.40;;;4.90;;
20462;SDS011;10390;53.566;9.980;2023-04-24T03:07:13;5.65;;;5.15;;
20462;SDS011;10390;53.566;9.980;2023-04-24T03:09:39;6.65;;;6.07;;
20462;SDS011;10390;53.566;9.980;2023-04-24T03:12:05;5.85;;;5.35;;
20462;SDS011;10390;53.566;9.980;2023-04-24T03:14:31;5.40;;;4.90;;
20462;SDS011;10390;53.566;9.980;2023-04-24T03:16:57;6.60;;;6.00;;
20462;SDS011;10390;53.566;9.980;2023-04-24T03:19:23;5.75;;;5.07;;
20462;SDS011;10390;53.566;9.980;2023-04-24T03:21:49;6.18;;;5.57;;
20462;SDS011;10390;53.566;9.980;2023-04-24T03:24:15;5.85;;;5.25;;
20462;SDS011;10390;53.566;9.980;2023-04-24T03:26:41;6.13;;;5.63;;
20462;SDS011;10390;53.566;9.980;2023-04-24T03:29:06;6.38;;;5.78;;
20462;SDS011;10390;53.566;9.980;2023-04-24T03:31:32;6.22;;;5.55;;
20462;SDS011;10390;53.566;9.980;2023-04-24T03:33:57;6.38;;;5.30;;
20462;SDS011;10390;53.566;9.980;2023-04-24T03:36:23;5.60;;;5.10;;
20462;SDS011;10390;53.566;9.980;2023-04-24T03:38:49;5.80;;;5.30;;
20462;SDS011;10390;53.566;9.980;2023-04-24T03:41:14;5.45;;;4.95;;
20462;SDS011;10390;53.566;9.980;2023-04-24T03:43:40;5.43;;;4.93;;
20462;SDS011;10390;53.566;9.980;2023-04-24T03:46:05;5.80;;;5.30;;
20462;SDS011;10390;53.566;9.980;2023-04-24T03:48:32;5.80;;;5.30;;
20462;SDS011;10390;53.566;9.980;2023-04-24T03:50:57;5.53;;;5.03;;
20462;SDS011;10390;53.566;9.980;2023-04-24T03:53:23;6.25;;;5.75;;
20462;SDS011;10390;53.566;9.980;2023-04-24T03:55:48;6.00;;;5.50;;
20462;SDS011;10390;53.566;9.980;2023-04-24T03:58:14;5.82;;;5.28;;
20462;SDS011;10390;53.566;9.980;2023-04-24T04:00:40;5.97;;;5.47;;
20462;SDS011;10390;53.566;9.980;2023-04-24T04:03:06;5.95;;;5.45;;
20462;SDS011;10390;53.566;9.980;2023-04-24T04:05:31;5.60;;;5.10;;
20462;SDS011;10390;53.566;9.980;2023-04-24T04:07:57;5.20;;;4.50;;
20462;SDS011;10390;53.566;9.980;2023-04-24T04:10:22;5.22;;;4.72;;
20462;SDS011;10390;53.566;9.980;2023-04-24T04:12:48;5.47;;;4.97;;
20462;SDS011;10390;53.566;9.980;2023-04-24T04:15:14;5.38;;;4.88;;
20462;SDS011;10390;53.566;9.980;2023-04-24T04:17:39;4.68;;;4.28;;
20462;SDS011;10390;53.566;9.980;2023-04-24T04:20:05;5.30;;;4.80;;
20462;SDS011;10390;53.566;9.980;2023-04-24T04:22:34;4.80;;;4.32;;
20462;SDS011;10390;53.566;9.980;2023-04-24T04:25:00;5.28;;;4.78;;
20462;SDS011;10390;53.566;9.980;2023-04-24T04:27:26;5.70;;;5.10;;
20462;SDS011;10390;53.566;9.980;2023-04-24T04:29:53;5.10;;;4.60;;
20462;SDS011;10390;53.566;9.980;2023-04-24T04:32:21;5.45;;;4.95;;
20462;SDS011;10390;53.566;9.980;2023-04-24T04:34:47;5.30;;;4.80;;
20462;SDS011;10390;53.566;9.980;2023-04-24T04:37:14;5.68;;;5.18;;
20462;SDS011;10390;53.566;9.980;2023-04-24T04:39:39;5.63;;;4.80;;
20462;SDS011;10390;53.566;9.980;2023-04-24T04:42:05;7.10;;;4.40;;
20462;SDS011;10390;53.566;9.980;2023-04-24T04:44:31;5.72;;;5.07;;
20462;SDS011;10390;53.566;9.980;2023-04-24T04:46:57;5.30;;;4.68;;
20462;SDS011;10390;53.566;9.980;2023-04-24T04:49:25;5.47;;;4.95;;
20462;SDS011;10390;53.566;9.980;2023-04-24T04:51:53;5.43;;;4.93;;
20462;SDS011;10390;53.566;9.980;2023-04-24T04:54:19;5.97;;;5.38;;
20462;SDS011;10390;53.566;9.980;2023-04-24T04:56:44;5.95;;;5.32;;
20462;SDS011;10390;53.566;9.980;2023-04-24T04:59:10;6.15;;;5.40;;
20462;SDS011;10390;53.566;9.980;2023-04-24T05:01:36;7.75;;;5.60;;
20462;SDS011;10390;53.566;9.980;2023-04-24T05:04:01;5.60;;;5.10;;
20462;SDS011;10390;53.566;9.980;2023-04-24T05:06:27;5.75;;;5.07;;
20462;SDS011;10390;53.566;9.980;2023-04-24T05:08:53;5.45;;;4.95;;
20462;SDS011;10390;53.566;9.980;2023-04-24T05:11:22;5.72;;;5.22;;
20462;SDS011;10390;53.566;9.980;2023-04-24T05:13:48;5.57;;;4.55;;
20462;SDS011;10390;53.566;9.980;2023-04-24T05:16:14;6.38;;;4.50;;
20462;SDS011;10390;53.566;9.980;2023-04-24T05:18:39;7.95;;;4.90;;
20462;SDS011;10390;53.566;9.980;2023-04-24T05:21:05;6.70;;;5.25;;
20462;SDS011;10390;53.566;9.980;2023-04-24T05:23:31;6.05;;;5.45;;
20462;SDS011;10390;53.566;9.980;2023-04-24T05:25:56;5.95;;;5.18;;
20462;SDS011;10390;53.566;9.980;2023-04-24T05:28:22;7.10;;;5.63;;
20462;SDS011;10390;53.566;9.980;2023-04-24T05:30:48;9.20;;;5.80;;
20462;SDS011;10390;53.566;9.980;2023-04-24T05:33:13;6.53;;;5.70;;
20462;SDS011;10390;53.566;9.980;2023-04-24T05:35:40;7.43;;;6.15;;
20462;SDS011;10390;53.566;9.980;2023-04-24T05:38:11;7.18;;;5.50;;
20462;SDS011;10390;53.566;9.980;2023-04-24T05:40:37;6.88;;;6.18;;
20462;SDS011;10390;53.566;9.980;2023-04-24T05:43:03;8.02;;;6.15;;
20462;SDS011;10390;53.566;9.980;2023-04-24T05:45:29;10.18;;;6.43;;
20462;SDS011;10390;53.566;9.980;2023-04-24T05:47:54;7.78;;;6.15;;
20462;SDS011;10390;53.566;9.980;2023-04-24T05:50:20;7.60;;;5.93;;
20462;SDS011;10390;53.566;9.980;2023-04-24T05:52:46;9.10;;;6.30;;
20462;SDS011;10390;53.566;9.980;2023-04-24T05:55:11;10.23;;;6.40;;
20462;SDS011;10390;53.566;9.980;2023-04-24T05:57:38;6.70;;;6.00;;
20462;SDS011;10390;53.566;9.980;2023-04-24T06:00:04;8.38;;;6.45;;
20462;SDS011;10390;53.566;9.980;2023-04-24T06:02:30;6.50;;;5.25;;
20462;SDS011;10390;53.566;9.980;2023-04-24T06:04:58;7.55;;;5.25;;
20462;SDS011;10390;53.566;9.980;2023-04-24T06:07:24;7.00;;;6.22;;
20462;SDS011;10390;53.566;9.980;2023-04-24T06:09:51;6.40;;;5.80;;
20462;SDS011;10390;53.566;9.980;2023-04-24T06:12:17;6.20;;;5.45;;
20462;SDS011;10390;53.566;9.980;2023-04-24T06:14:42;6.25;;;5.65;;
20462;SDS011;10390;53.566;9.980;2023-04-24T06:17:08;5.63;;;4.97;;
20462;SDS011;10390;53.566;9.980;2023-04-24T06:19:34;6.55;;;5.95;;
20462;SDS011;10390;53.566;9.980;2023-04-24T06:21:59;6.95;;;6.25;;
20462;SDS011;10390;53.566;9.980;2023-04-24T06:24:28;6.05;;;5.45;;
20462;SDS011;10390;53.566;9.980;2023-04-24T06:26:54;6.95;;;5.28;;
20462;SDS011;10390;53.566;9.980;2023-04-24T06:29:21;6.10;;;5.50;;
20462;SDS011;10390;53.566;9.980;2023-04-24T06:31:47;5.97;;;5.38;;
20462;SDS011;10390;53.566;9.980;2023-04-24T06:34:12;6.85;;;5.65;;
20462;SDS011;10390;53.566;9.980;2023-04-24T06:36:38;9.43;;;6.05;;
20462;SDS011;10390;53.566;9.980;2023-04-24T06:39:04;6.60;;;6.00;;
20462;SDS011;10390;53.566;9.980;2023-04-24T06:41:29;6.93;;;6.32;;
20462;SDS011;10390;53.566;9.980;2023-04-24T06:43:55;8.07;;;6.28;;
20462;SDS011;10390;53.566;9.980;2023-04-24T06:46:21;6.88;;;6.20;;
20462;SDS011;10390;53.566;9.980;2023-04-24T06:48:51;6.45;;;5.85;;
20462;SDS011;10390;53.566;9.980;2023-04-24T06:51:20;7.10;;;6.40;;
20462;SDS011;10390;53.566;9.980;2023-04-24T06:53:47;7.50;;;6.80;;
20462;SDS011;10390;53.566;9.980;2023-04-24T06:56:13;7.57;;;6.63;;
20462;SDS011;10390;53.566;9.980;2023-04-24T06:58:38;6.53;;;5.90;;
20462;SDS011;10390;53.566;9.980;2023-04-24T07:01:04;7.22;;;6.63;;
20462;SDS011;10390;53.566;9.980;2023-04-24T07:03:30;7.63;;;6.35;;
20462;SDS011;10390;53.566;9.980;2023-04-24T07:05:55;7.05;;;6.38;;
20462;SDS011;10390;53.566;9.980;2023-04-24T07:08:22;6.93;;;6.25;;
20462;SDS011;10390;53.566;9.980;2023-04-24T07:10:49;6.43;;;5.82;;
20462;SDS011;10390;53.566;9.980;2023-04-24T07:13:16;7.75;;;6.53;;
20462;SDS011;10390;53.566;9.980;2023-04-24T07:15:42;7.85;;;7.07;;
20462;SDS011;10390;53.566;9.980;2023-04-24T07:18:07;6.80;;;6.20;;
20462;SDS011;10390;53.566;9.980;2023-04-24T07:20:33;7.20;;;6.53;;
20462;SDS011;10390;53.566;9.980;2023-04-24T07:22:59;6.78;;;6.18;;
20462;SDS011;10390;53.566;9.980;2023-04-24T07:25:25;7.50;;;6.90;;
20462;SDS011;10390;53.566;9.980;2023-04-24T07:27:50;6.72;;;6.13;;
20462;SDS011;10390;53.566;9.980;2023-04-24T07:30:17;6.20;;;5.70;;
20462;SDS011;10390;53.566;9.980;2023-04-24T07:32:42;6.30;;;5.80;;
20462;SDS011;10390;53.566;9.980;2023-04-24T07:35:08;6.18;;;5.68;;
20462;SDS011;10390;53.566;9.980;2023-04-24T07:37:34;7.00;;;6.40;;
20462;SDS011;10390;53.566;9.980;2023-04-24T07:40:00;6.32;;;5.72;;
20462;SDS011;10390;53.566;9.980;2023-04-24T07:42:26;7.28;;;6.68;;
20462;SDS011;10390;53.566;9.980;2023-04-24T07:44:52;6.90;;;6.30;;
20462;SDS011;10390;53.566;9.980;2023-04-24T07:47:18;6.38;;;5.30;;
20462;SDS011;10390;53.566;9.980;2023-04-24T07:49:44;6.20;;;5.60;;
20462;SDS011;10390;53.566;9.980;2023-04-24T07:52:10;6.40;;;5.80;;
20462;SDS011;10390;53.566;9.980;2023-04-24T07:54:35;5.57;;;5.07;;
20462;SDS011;10390;53.566;9.980;2023-04-24T07:57:02;6.05;;;5.47;;
20462;SDS011;10390;53.566;9.980;2023-04-24T07:59:28;6.10;;;5.50;;
20462;SDS011;10390;53.566;9.980;2023-04-24T08:01:53;5.78;;;5.20;;
20462;SDS011;10390;53.566;9.980;2023-04-24T08:04:19;6.28;;;5.68;;
20462;SDS011;10390;53.566;9.980;2023-04-24T08:06:46;6.88;;;5.45;;
20462;SDS011;10390;53.566;9.980;2023-04-24T08:09:12;6.18;;;5.57;;
20462;SDS011;10390;53.566;9.980;2023-04-24T08:11:38;5.90;;;5.40;;
20462;SDS011;10390;53.566;9.980;2023-04-24T08:14:04;5.70;;;5.20;;
20462;SDS011;10390;53.566;9.980;2023-04-24T08:16:30;6.00;;;5.50;;
20462;SDS011;10390;53.566;9.980;2023-04-24T08:18:57;6.70;;;6.10;;
20462;SDS011;10390;53.566;9.980;2023-04-24T08:21:22;7.45;;;6.75;;
20462;SDS011;10390;53.566;9.980;2023-04-24T08:23:48;6.50;;;5.90;;
20462;SDS011;10390;53.566;9.980;2023-04-24T08:26:14;6.40;;;5.88;;
20462;SDS011;10390;53.566;9.980;2023-04-24T08:28:39;6.55;;;6.05;;
20462;SDS011;10390;53.566;9.980;2023-04-24T08:31:05;6.38;;;5.78;;
20462;SDS011;10390;53.566;9.980;2023-04-24T08:33:31;5.93;;;5.43;;
20462;SDS011;10390;53.566;9.980;2023-04-24T08:36:00;6.65;;;6.07;;
20462;SDS011;10390;53.566;9.980;2023-04-24T08:38:27;6.70;;;6.20;;
20462;SDS011;10390;53.566;9.980;2023-04-24T08:40:53;6.35;;;5.75;;
20462;SDS011;10390;53.566;9.980;2023-04-24T08:43:21;6.28;;;5.78;;
20462;SDS011;10390;53.566;9.980;2023-04-24T08:45:48;6.60;;;6.10;;
20462;SDS011;10390;53.566;9.980;2023-04-24T08:48:13;6.55;;;6.00;;
20462;SDS011;10390;53.566;9.980;2023-04-24T08:50:40;6.72;;;6.20;;
20462;SDS011;10390;53.566;9.980;2023-04-24T08:53:08;6.22;;;5.63;;
20462;SDS011;10390;53.566;9.980;2023-04-24T08:55:34;5.60;;;5.10;;
20462;SDS011;10390;53.566;9.980;2023-04-24T08:58:00;6.03;;;5.53;;
20462;SDS011;10390;53.566;9.980;2023-04-24T09:00:27;5.95;;;5.45;;
20462;SDS011;10390;53.566;9.980;2023-04-24T09:02:53;6.47;;;5.97;;
20462;SDS011;10390;53.566;9.980;2023-04-24T09:05:21;6.22;;;5.70;;
20462;SDS011;10390;53.566;9.980;2023-04-24T09:07:57;6.43;;;5.82;;
20462;SDS011;10390;53.566;9.980;2023-04-24T09:10:26;6.10;;;5.50;;
20462;SDS011;10390;53.566;9.980;2023-04-24T09:12:55;5.95;;;5.07;;
20462;SDS011;10390;53.566;9.980;2023-04-24T09:15:23;5.80;;;5.22;;
20462;SDS011;10390;53.566;9.980;2023-04-24T09:17:49;5.82;;;5.32;;
20462;SDS011;10390;53.566;9.980;2023-04-24T09:20:14;6.00;;;5.50;;
20462;SDS011;10390;53.566;9.980;2023-04-24T09:22:41;6.68;;;5.40;;
20462;SDS011;10390;53.566;9.980;2023-04-24T09:25:08;5.95;;;5.45;;
20462;SDS011;10390;53.566;9.980;2023-04-24T09:27:34;6.25;;;5.63;;
20462;SDS011;10390;53.566;9.980;2023-04-24T09:30:00;6.50;;;6.00;;
20462;SDS011;10390;53.566;9.980;2023-04-24T09:32:27;5.65;;;5.15;;
20462;SDS011;10390;53.566;9.980;2023-04-24T09:35:08;5.50;;;5.00;;
20462;SDS011;10390;53.566;9.980;2023-04-24T09:37:39;7.40;;;6.50;;
20462;SDS011;10390;53.566;9.980;2023-04-24T09:40:12;6.50;;;5.85;;
20462;SDS011;10390;53.566;9.980;2023-04-24T09:42:43;6.30;;;5.70;;
20462;SDS011;10390;53.566;9.980;2023-04-24T09:45:20;6.00;;;5.50;;
20462;SDS011;10390;53.566;9.980;2023-04-24T09:47:46;6.00;;;5.45;;
20462;SDS011;10390;53.566;9.980;2023-04-24T09:50:18;6.20;;;5.57;;
20462;SDS011;10390;53.566;9.980;2023-04-24T09:52:44;6.10;;;5.60;;
20462;SDS011;10390;53.566;9.980;2023-04-24T09:55:20;6.65;;;6.05;;
20462;SDS011;10390;53.566;9.980;2023-04-24T09:57:47;6.03;;;5.43;;
20462;SDS011;10390;53.566;9.980;2023-04-24T10:00:17;6.93;;;5.22;;
20462;SDS011;10390;53.566;9.980;2023-04-24T10:02:44;5.28;;;4.78;;
20462;SDS011;10390;53.566;9.980;2023-04-24T10:05:11;5.50;;;5.00;;
20462;SDS011;10390;53.566;9.980;2023-04-24T10:07:37;5.90;;;5.40;;
20462;SDS011;10390;53.566;9.980;2023-04-24T10:10:03;5.80;;;5.30;;
20462;SDS011;10390;53.566;9.980;2023-04-24T10:12:30;6.22;;;5.72;;
20462;SDS011;10390;53.566;9.980;2023-04-24T10:14:56;5.97;;;5.47;;
20462;SDS011;10390;53.566;9.980;2023-04-24T10:17:22;15.20;;;10.50;;
20462;SDS011;10390;53.566;9.980;2023-04-24T10:19:50;34.55;;;29.58;;
20462;SDS011;10390;53.566;9.980;2023-04-24T10:22:17;49.00;;;42.97;;
20462;SDS011;10390;53.566;9.980;2023-04-24T10:24:43;40.83;;;35.55;;
20462;SDS011;10390;53.566;9.980;2023-04-24T10:27:10;34.40;;;29.65;;
20462;SDS011;10390;53.566;9.980;2023-04-24T10:29:37;24.10;;;21.52;;
20462;SDS011;10390;53.566;9.980;2023-04-24T10:32:06;20.50;;;17.98;;
20462;SDS011;10390;53.566;9.980;2023-04-24T10:34:32;16.88;;;14.57;;
20462;SDS011;10390;53.566;9.980;2023-04-24T10:36:58;15.52;;;12.43;;
20462;SDS011;10390;53.566;9.980;2023-04-24T10:39:23;14.68;;;13.07;;
20462;SDS011;10390;53.566;9.980;2023-04-24T10:41:49;13.35;;;11.85;;
20462;SDS011;10390;53.566;9.980;2023-04-24T10:44:15;11.23;;;10.05;;
20462;SDS011;10390;53.566;9.980;2023-04-24T10:46:45;11.18;;;10.02;;
20462;SDS011;10390;53.566;9.980;2023-04-24T10:49:14;10.30;;;9.30;;
20462;SDS011;10390;53.566;9.980;2023-04-24T10:54:27;9.45;;;8.55;;
20462;SDS011;10390;53.566;9.980;2023-04-24T10:59:47;8.13;;;7.18;;
20462;SDS011;10390;53.566;9.980;2023-04-24T11:02:17;8.65;;;7.55;;
20462;SDS011;10390;53.566;9.980;2023-04-24T11:04:43;8.02;;;7.22;;
20462;SDS011;10390;53.566;9.980;2023-04-24T11:07:10;8.52;;;7.70;;
20462;SDS011;10390;53.566;9.980;2023-04-24T11:09:36;7.45;;;6.75;;
20462;SDS011;10390;53.566;9.980;2023-04-24T11:12:03;8.10;;;7.35;;
20462;SDS011;10390;53.566;9.980;2023-04-24T11:14:29;7.47;;;6.85;;
20462;SDS011;10390;53.566;9.980;2023-04-24T11:16:55;7.35;;;6.60;;
20462;SDS011;10390;53.566;9.980;2023-04-24T11:19:22;8.00;;;7.30;;
20462;SDS011;10390;53.566;9.980;2023-04-24T11:27:12;7.60;;;6.40;;
20462;SDS011;10390;53.566;9.980;2023-04-24T11:32:17;7.82;;;7.13;;
20462;SDS011;10390;53.566;9.980;2023-04-24T11:34:50;6.35;;;5.85;;
20462;SDS011;10390;53.566;9.980;2023-04-24T11:37:18;6.95;;;6.40;;
20462;SDS011;10390;53.566;9.980;2023-04-24T11:39:43;6.80;;;6.20;;
20462;SDS011;10390;53.566;9.980;2023-04-24T11:42:09;7.03;;;6.43;;
20462;SDS011;10390;53.566;9.980;2023-04-24T11:44:35;6.82;;;6.22;;
20462;SDS011;10390;53.566;9.980;2023-04-24T11:47:06;7.10;;;6.50;;
20462;SDS011;10390;53.566;9.980;2023-04-24T11:49:33;7.50;;;6.82;;
20462;SDS011;10390;53.566;9.980;2023-04-24T11:52:01;7.70;;;7.10;;
20462;SDS011;10390;53.566;9.980;2023-04-24T11:54:27;8.05;;;7.25;;
20462;SDS011;10390;53.566;9.980;2023-04-24T11:56:53;9.40;;;8.50;;
20462;SDS011;10390;53.566;9.980;2023-04-24T11:59:21;11.15;;;9.82;;
20462;SDS011;10390;53.566;9.980;2023-04-24T12:01:47;21.95;;;15.60;;
20462;SDS011;10390;53.566;9.980;2023-04-24T12:04:14;20.67;;;15.27;;
20462;SDS011;10390;53.566;9.980;2023-04-24T12:07:03;23.55;;;17.52;;
20462;SDS011;10390;53.566;9.980;2023-04-24T12:09:39;18.85;;;15.50;;
20462;SDS011;10390;53.566;9.980;2023-04-24T12:12:06;21.25;;;15.90;;
20462;SDS011;10390;53.566;9.980;2023-04-24T12:14:32;23.17;;;17.23;;
20462;SDS011;10390;53.566;9.980;2023-04-24T12:16:58;23.23;;;16.50;;
20462;SDS011;10390;53.566;9.980;2023-04-24T12:19:23;24.13;;;17.80;;
20462;SDS011;10390;53.566;9.980;2023-04-24T12:21:59;22.80;;;16.90;;
20462;SDS011;10390;53.566;9.980;2023-04-24T12:24:28;22.45;;;16.63;;
20462;SDS011;10390;53.566;9.980;2023-04-24T12:26:55;24.20;;;17.92;;
20462;SDS011;10390;53.566;9.980;2023-04-24T12:29:21;23.77;;;18.00;;
20462;SDS011;10390;53.566;9.980;2023-04-24T12:31:47;23.80;;;18.08;;
20462;SDS011;10390;53.566;9.980;2023-04-24T12:34:19;21.40;;;16.63;;
20462;SDS011;10390;53.566;9.980;2023-04-24T12:36:46;21.63;;;17.13;;
20462;SDS011;10390;53.566;9.980;2023-04-24T12:39:16;21.88;;;16.23;;
20462;SDS011;10390;53.566;9.980;2023-04-24T12:41:56;21.65;;;16.70;;
20462;SDS011;10390;53.566;9.980;2023-04-24T12:44:28;19.42;;;14.95;;
20462;SDS011;10390;53.566;9.980;2023-04-24T12:46:55;20.23;;;15.45;;
20462;SDS011;10390;53.566;9.980;2023-04-24T12:49:21;18.33;;;14.82;;
20462;SDS011;10390;53.566;9.980;2023-04-24T12:51:46;19.25;;;14.52;;
20462;SDS011;10390;53.566;9.980;2023-04-24T12:54:12;19.30;;;14.77;;
20462;SDS011;10390;53.566;9.980;2023-04-24T12:56:37;16.30;;;13.85;;
20462;SDS011;10390;53.566;9.980;2023-04-24T12:59:04;14.57;;;13.00;;
20462;SDS011;10390;53.566;9.980;2023-04-24T13:01:30;13.95;;;12.43;;
20462;SDS011;10390;53.566;9.980;2023-04-24T13:03:56;14.85;;;11.93;;
20462;SDS011;10390;53.566;9.980;2023-04-24T13:06:21;15.18;;;12.05;;
20462;SDS011;10390;53.566;9.980;2023-04-24T13:08:47;13.85;;;11.52;;
20462;SDS011;10390;53.566;9.980;2023-04-24T13:11:13;13.65;;;11.73;;
20462;SDS011;10390;53.566;9.980;2023-04-24T13:13:39;13.05;;;11.02;;
20462;SDS011;10390;53.566;9.980;2023-04-24T13:16:05;13.75;;;11.50;;
20462;SDS011;10390;53.566;9.980;2023-04-24T13:18:30;13.32;;;11.25;;
20462;SDS011;10390;53.566;9.980;2023-04-24T13:20:56;12.52;;;11.13;;
20462;SDS011;10390;53.566;9.980;2023-04-24T13:23:22;12.48;;;11.18;;
20462;SDS011;10390;53.566;9.980;2023-04-24T13:25:48;12.75;;;11.23;;
20462;SDS011;10390;53.566;9.980;2023-04-24T13:28:14;12.73;;;11.02;;
20462;SDS011;10390;53.566;9.980;2023-04-24T13:30:39;12.18;;;10.88;;
20462;SDS011;10390;53.566;9.980;2023-04-24T13:33:05;11.57;;;10.38;;
20462;SDS011;10390;53.566;9.980;2023-04-24T13:35:31;11.00;;;9.90;;
20462;SDS011;10390;53.566;9.980;2023-04-24T13:37:57;11.85;;;9.73;;
20462;SDS011;10390;53.566;9.980;2023-04-24T13:40:23;12.48;;;10.98;;
20462;SDS011;10390;53.566;9.980;2023-04-24T13:42:48;11.07;;;9.90;;
20462;SDS011;10390;53.566;9.980;2023-04-24T13:45:14;10.65;;;9.55;;
20462;SDS011;10390;53.566;9.980;2023-04-24T13:47:40;11.18;;;9.90;;
20462;SDS011;10390;53.566;9.980;2023-04-24T13:50:07;12.02;;;8.95;;
20462;SDS011;10390;53.566;9.980;2023-04-24T13:52:33;10.35;;;8.70;;
20462;SDS011;10390;53.566;9.980;2023-04-24T13:54:59;10.30;;;9.25;;
20462;SDS011;10390;53.566;9.980;2023-04-24T13:57:25;10.52;;;9.43;;
20462;SDS011;10390;53.566;9.980;2023-04-24T13:59:50;15.75;;;9.70;;
20462;SDS011;10390;53.566;9.980;2023-04-24T14:02:16;17.40;;;9.45;;
20462;SDS011;10390;53.566;9.980;2023-04-24T14:04:42;22.63;;;9.68;;
20462;SDS011;10390;53.566;9.980;2023-04-24T14:07:07;17.40;;;9.32;;
20462;SDS011;10390;53.566;9.980;2023-04-24T14:09:33;28.70;;;10.68;;
20462;SDS011;10390;53.566;9.980;2023-04-24T14:11:59;22.95;;;9.68;;
20462;SDS011;10390;53.566;9.980;2023-04-24T14:14:26;19.35;;;9.77;;
20462;SDS011;10390;53.566;9.980;2023-04-24T14:16:52;17.23;;;8.77;;
20462;SDS011;10390;53.566;9.980;2023-04-24T14:19:18;18.83;;;8.75;;
20462;SDS011;10390;53.566;9.980;2023-04-24T14:21:43;15.90;;;8.30;;
20462;SDS011;10390;53.566;9.980;2023-04-24T14:24:09;14.05;;;9.10;;
20462;SDS011;10390;53.566;9.980;2023-04-24T14:26:35;11.70;;;7.45;;
20462;SDS011;10390;53.566;9.980;2023-04-24T14:29:00;14.07;;;8.27;;
20462;SDS011;10390;53.566;9.980;2023-04-24T14:31:27;16.48;;;9.05;;
20462;SDS011;10390;53.566;9.980;2023-04-24T14:33:53;13.70;;;8.10;;
20462;SDS011;10390;53.566;9.980;2023-04-24T14:36:18;13.13;;;7.75;;
20462;SDS011;10390;53.566;9.980;2023-04-24T14:38:44;17.20;;;7.53;;
20462;SDS011;10390;53.566;9.980;2023-04-24T14:41:09;14.80;;;7.22;;
20462;SDS011;10390;53.566;9.980;2023-04-24T14:43:36;13.48;;;7.32;;
20462;SDS011;10390;53.566;9.980;2023-04-24T14:46:03;11.80;;;7.93;;
20462;SDS011;10390;53.566;9.980;2023-04-24T14:48:28;10.05;;;7.45;;
20462;SDS011;10390;53.566;9.980;2023-04-24T14:50:55;10.73;;;6.70;;
20462;SDS011;10390;53.566;9.980;2023-04-24T14:53:20;10.48;;;7.28;;